createdAt,value
2017-04-15T00:00:04.401Z,43.29
2017-04-15T00:01:02.304Z,41.86
2017-04-15T00:02:01.047Z,41.86
2017-04-15T00:02:59.296Z,44.51
2017-04-15T00:03:58.590Z,41.20
2017-04-15T00:04:56.931Z,42.97
2017-04-15T00:05:55.429Z,44.01
2017-04-15T00:06:53.377Z,40.40
2017-04-15T00:07:51.308Z,48.49
2017-04-15T00:08:49.172Z,40.94
2017-04-15T00:09:47.053Z,41.89
2017-04-15T00:10:44.939Z,44.23
2017-04-15T00:11:43.108Z,38.50
2017-04-15T00:12:41.021Z,43.39
2017-04-15T00:13:39.536Z,41.41
2017-04-15T00:14:37.407Z,38.89
2017-04-15T00:15:35.553Z,39.47
2017-04-15T00:16:33.481Z,41.99
2017-04-15T00:17:31.466Z,40.44
2017-04-15T00:18:29.309Z,43.20
2017-04-15T00:19:27.290Z,42.27
2017-04-15T00:20:25.407Z,39.03
2017-04-15T00:21:23.428Z,42.24
2017-04-15T00:22:21.264Z,37.86
2017-04-15T00:23:19.251Z,37.14
2017-04-15T00:24:17.213Z,37.39
2017-04-15T00:25:15.144Z,36.40
2017-04-15T00:26:13.010Z,35.61
2017-04-15T00:27:10.876Z,43.13
2017-04-15T00:28:08.759Z,37.43
2017-04-15T00:29:06.685Z,40.81
2017-04-15T00:30:04.742Z,39.46
2017-04-15T00:31:02.651Z,36.51
2017-04-15T00:32:00.644Z,42.31
2017-04-15T00:32:58.765Z,35.44
2017-04-15T00:33:56.735Z,37.76
2017-04-15T00:34:54.619Z,36.91
2017-04-15T00:35:52.542Z,39.66
2017-04-15T00:36:50.433Z,38.44
2017-04-15T00:37:51.937Z,39.31
2017-04-15T00:38:50.065Z,40.07
2017-04-15T00:39:48.020Z,39.23
2017-04-15T00:40:45.908Z,41.26
2017-04-15T00:41:43.805Z,42.43
2017-04-15T00:42:42.353Z,39.97
2017-04-15T00:43:40.241Z,43.39
2017-04-15T00:44:38.161Z,41.16
2017-04-15T00:45:36.084Z,45.37
2017-04-15T00:46:34.011Z,46.56
2017-04-15T00:47:31.978Z,43.60
2017-04-15T00:48:34.159Z,39.47
2017-04-15T00:49:32.353Z,40.69
2017-04-15T00:50:30.599Z,43.57
2017-04-15T00:51:28.491Z,39.39
2017-04-15T00:52:26.351Z,37.14
2017-04-15T00:53:24.278Z,42.47
2017-04-15T00:54:22.185Z,37.73
2017-04-15T00:55:20.075Z,38.66
2017-04-15T00:56:18.077Z,42.11
2017-04-15T00:57:15.939Z,41.60
2017-04-15T00:58:13.860Z,36.26
2017-04-15T00:59:11.690Z,39.69
2017-04-15T01:00:09.716Z,42.33
2017-04-15T01:01:08.454Z,37.77
2017-04-15T01:02:07.190Z,39.74
2017-04-15T01:03:05.308Z,38.80
2017-04-15T01:04:04.411Z,43.90
2017-04-15T01:05:02.452Z,37.56
2017-04-15T01:06:00.347Z,37.99
2017-04-15T01:06:58.411Z,35.79
2017-04-15T01:07:56.364Z,39.73
2017-04-15T01:08:54.255Z,39.93
2017-04-15T01:09:52.284Z,35.36
2017-04-15T01:10:50.349Z,37.24
2017-04-15T01:11:48.421Z,41.79
2017-04-15T01:12:46.443Z,37.19
2017-04-15T01:13:44.404Z,38.39
2017-04-15T01:14:42.296Z,37.96
2017-04-15T01:15:40.202Z,38.70
2017-04-15T01:16:38.285Z,34.84
2017-04-15T01:17:36.324Z,39.96
2017-04-15T01:18:34.188Z,38.46
2017-04-15T01:19:32.605Z,38.71
2017-04-15T01:20:30.574Z,38.19
2017-04-15T01:21:28.701Z,39.64
2017-04-15T01:22:26.582Z,41.69
2017-04-15T01:23:24.492Z,39.87
2017-04-15T01:24:22.405Z,38.07
2017-04-15T01:25:20.288Z,34.17
2017-04-15T01:26:18.185Z,44.44
2017-04-15T01:27:16.239Z,33.44
2017-04-15T01:28:14.312Z,34.06
2017-04-15T01:29:12.436Z,33.69
2017-04-15T01:30:10.479Z,40.67
2017-04-15T01:31:08.371Z,38.94
2017-04-15T01:32:06.263Z,35.90
2017-04-15T01:33:04.127Z,37.17
2017-04-15T01:34:02.084Z,38.94
2017-04-15T01:34:59.994Z,44.53
2017-04-15T01:35:58.381Z,42.83
2017-04-15T01:36:56.875Z,36.31
2017-04-15T01:37:54.884Z,37.94
2017-04-15T01:38:52.809Z,34.09
2017-04-15T01:39:51.212Z,41.47
2017-04-15T01:40:49.225Z,35.60
2017-04-15T01:41:47.139Z,40.71
2017-04-15T01:42:45.041Z,37.74
2017-04-15T01:43:43.137Z,42.01
2017-04-15T01:44:41.038Z,38.63
2017-04-15T01:45:38.996Z,38.54
2017-04-15T01:46:37.420Z,37.29
2017-04-15T01:47:35.650Z,41.87
2017-04-15T01:48:33.512Z,38.94
2017-04-15T01:49:31.364Z,41.23
2017-04-15T01:50:29.196Z,38.16
2017-04-15T01:51:27.068Z,38.83
2017-04-15T01:52:24.869Z,36.30
2017-04-15T01:53:22.748Z,40.97
2017-04-15T01:54:20.627Z,35.03
2017-04-15T01:55:18.494Z,37.39
2017-04-15T01:56:16.363Z,38.59
2017-04-15T01:57:14.287Z,37.83
2017-04-15T01:58:12.144Z,31.47
2017-04-15T01:59:10.079Z,35.04
2017-04-15T02:00:07.982Z,32.37
2017-04-15T02:01:05.911Z,37.11
2017-04-15T02:02:03.835Z,34.76
2017-04-15T02:03:01.758Z,32.54
2017-04-15T02:03:59.597Z,35.23
2017-04-15T02:04:57.507Z,34.03
2017-04-15T02:05:55.298Z,36.37
2017-04-15T02:06:53.147Z,39.69
2017-04-15T02:07:51.095Z,37.69
2017-04-15T02:08:48.972Z,35.49
2017-04-15T02:09:46.819Z,37.14
2017-04-15T02:10:44.684Z,31.97
2017-04-15T02:11:42.539Z,35.46
2017-04-15T02:12:40.553Z,37.47
2017-04-15T02:13:38.409Z,33.79
2017-04-15T02:14:36.280Z,35.73
2017-04-15T02:15:34.152Z,38.16
2017-04-15T02:16:32.042Z,34.93
2017-04-15T02:17:29.944Z,35.03
2017-04-15T02:18:27.841Z,34.80
2017-04-15T02:19:25.750Z,36.00
2017-04-15T02:20:24.211Z,36.86
2017-04-15T02:21:22.056Z,34.91
2017-04-15T02:22:21.766Z,32.37
2017-04-15T02:23:20.367Z,33.67
2017-04-15T02:24:18.427Z,31.66
2017-04-15T02:25:16.476Z,34.61
2017-04-15T02:26:14.382Z,35.81
2017-04-15T02:27:12.224Z,30.99
2017-04-15T02:28:10.480Z,30.89
2017-04-15T02:29:08.316Z,31.29
2017-04-15T02:30:06.121Z,31.77
2017-04-15T02:31:03.996Z,33.94
2017-04-15T02:32:01.820Z,32.21
2017-04-15T02:32:59.673Z,30.69
2017-04-15T02:33:57.489Z,34.47
2017-04-15T02:34:55.420Z,30.69
2017-04-15T02:35:53.287Z,33.29
2017-04-15T02:36:51.143Z,32.73
2017-04-15T02:37:48.995Z,28.07
2017-04-15T02:38:46.783Z,34.43
2017-04-15T02:39:47.904Z,26.19
2017-04-15T02:40:45.771Z,28.64
2017-04-15T02:41:44.108Z,34.24
2017-04-15T02:42:41.983Z,29.83
2017-04-15T02:43:39.832Z,30.37
2017-04-15T02:44:39.393Z,30.74
2017-04-15T02:45:38.849Z,29.49
2017-04-15T02:46:37.258Z,31.63
2017-04-15T02:47:35.149Z,30.00
2017-04-15T02:48:33.040Z,32.99
2017-04-15T02:49:30.928Z,27.54
2017-04-15T02:50:28.825Z,30.96
2017-04-15T02:51:26.720Z,31.81
2017-04-15T02:52:24.577Z,27.37
2017-04-15T02:53:22.391Z,29.71
2017-04-15T02:54:20.248Z,25.60
2017-04-15T02:55:18.200Z,27.13
2017-04-15T02:56:16.041Z,28.51
2017-04-15T02:57:14.020Z,30.44
2017-04-15T02:58:11.857Z,29.59
2017-04-15T02:59:09.885Z,27.16
2017-04-15T03:00:07.916Z,27.90
2017-04-15T03:01:05.783Z,26.50
2017-04-15T03:02:03.704Z,30.79
2017-04-15T03:03:01.571Z,28.29
2017-04-15T03:03:59.424Z,27.87
2017-04-15T03:04:57.279Z,27.37
2017-04-15T03:05:55.185Z,28.97
2017-04-15T03:06:53.067Z,31.67
2017-04-15T03:07:50.913Z,29.44
2017-04-15T03:08:48.892Z,29.39
2017-04-15T03:09:46.744Z,31.77
2017-04-15T03:10:44.587Z,28.50
2017-04-15T03:11:42.448Z,29.07
2017-04-15T03:12:40.315Z,26.51
2017-04-15T03:13:38.225Z,29.54
2017-04-15T03:14:36.098Z,25.54
2017-04-15T03:15:34.031Z,28.26
2017-04-15T03:16:31.856Z,26.97
2017-04-15T03:17:29.752Z,28.60
2017-04-15T03:18:27.627Z,26.67
2017-04-15T03:19:25.521Z,23.71
2017-04-15T03:20:23.391Z,25.86
2017-04-15T03:21:21.404Z,23.49
2017-04-15T03:22:19.231Z,25.60
2017-04-15T03:23:17.050Z,28.94
2017-04-15T03:24:15.115Z,27.93
2017-04-15T03:25:12.948Z,28.41
2017-04-15T03:26:10.809Z,24.77
2017-04-15T03:27:08.676Z,25.36
2017-04-15T03:28:06.756Z,25.66
2017-04-15T03:29:04.685Z,27.77
2017-04-15T03:30:02.555Z,30.14
2017-04-15T03:31:00.423Z,24.97
2017-04-15T03:31:58.257Z,24.16
2017-04-15T03:32:56.227Z,26.89
2017-04-15T03:33:54.048Z,23.64
2017-04-15T03:34:51.922Z,23.83
2017-04-15T03:35:49.815Z,20.99
2017-04-15T03:36:47.644Z,26.70
2017-04-15T03:37:45.548Z,24.17
2017-04-15T03:38:43.368Z,23.93
2017-04-15T03:39:41.316Z,22.46
2017-04-15T03:40:39.159Z,27.21
2017-04-15T03:41:37.031Z,25.77
2017-04-15T03:42:34.908Z,24.99
2017-04-15T03:43:32.720Z,27.34
2017-04-15T03:44:30.661Z,23.57
2017-04-15T03:45:28.533Z,24.36
2017-04-15T03:46:26.387Z,21.37
2017-04-15T03:47:24.211Z,22.90
2017-04-15T03:48:22.220Z,25.53
2017-04-15T03:49:20.176Z,20.97
2017-04-15T03:50:18.031Z,22.26
2017-04-15T03:51:15.874Z,26.43
2017-04-15T03:52:13.871Z,23.17
2017-04-15T03:53:11.707Z,25.00
2017-04-15T03:54:09.545Z,22.69
2017-04-15T03:55:09.025Z,22.37
2017-04-15T03:56:06.891Z,22.84
2017-04-15T03:57:04.716Z,28.66
2017-04-15T03:58:02.537Z,23.23
2017-04-15T03:59:00.407Z,26.36
2017-04-15T03:59:58.328Z,20.46
2017-04-15T04:00:56.172Z,24.33
2017-04-15T04:01:54.000Z,23.13
2017-04-15T04:02:51.958Z,23.54
2017-04-15T04:03:49.811Z,23.20
2017-04-15T04:04:47.771Z,24.86
2017-04-15T04:05:45.655Z,20.99
2017-04-15T04:06:43.581Z,28.01
2017-04-15T04:07:41.416Z,21.14
2017-04-15T04:08:39.297Z,20.83
2017-04-15T04:09:37.223Z,21.59
2017-04-15T04:10:35.048Z,24.39
2017-04-15T04:11:33.000Z,22.33
2017-04-15T04:12:30.832Z,25.34
2017-04-15T04:13:28.680Z,25.00
2017-04-15T04:14:26.608Z,21.16
2017-04-15T04:15:24.447Z,21.91
2017-04-15T04:16:22.379Z,20.91
2017-04-15T04:17:20.195Z,19.04
2017-04-15T04:18:18.159Z,24.50
2017-04-15T04:19:16.033Z,25.17
2017-04-15T04:20:13.871Z,23.43
2017-04-15T04:21:11.834Z,24.54
2017-04-15T04:22:09.695Z,27.23
2017-04-15T04:23:07.618Z,20.91
2017-04-15T04:24:05.487Z,23.23
2017-04-15T04:25:03.456Z,21.53
2017-04-15T04:26:01.304Z,22.50
2017-04-15T04:26:59.174Z,25.37
2017-04-15T04:27:56.972Z,22.04
2017-04-15T04:28:54.835Z,21.16
2017-04-15T04:29:52.641Z,20.19
2017-04-15T04:30:50.576Z,25.77
2017-04-15T04:31:48.427Z,21.00
2017-04-15T04:32:46.314Z,19.11
2017-04-15T04:33:44.200Z,21.77
2017-04-15T04:34:42.037Z,20.37
2017-04-15T04:35:39.963Z,19.74
2017-04-15T04:36:37.792Z,19.01
2017-04-15T04:37:35.603Z,18.37
2017-04-15T04:38:33.751Z,19.69
2017-04-15T04:39:31.582Z,19.81
2017-04-15T04:40:29.392Z,20.16
2017-04-15T04:41:27.231Z,18.34
2017-04-15T04:42:25.300Z,22.30
2017-04-15T04:43:23.147Z,20.21
2017-04-15T04:44:25.508Z,18.17
2017-04-15T04:45:23.381Z,19.93
2017-04-15T04:46:21.273Z,22.31
2017-04-15T04:47:19.106Z,17.41
2017-04-15T04:48:16.951Z,18.64
2017-04-15T04:49:14.824Z,18.67
2017-04-15T04:50:12.619Z,18.50
2017-04-15T04:51:10.612Z,20.97
2017-04-15T04:52:08.480Z,20.50
2017-04-15T04:53:06.528Z,17.87
2017-04-15T04:54:04.397Z,23.26
2017-04-15T04:55:02.280Z,18.06
2017-04-15T04:56:00.136Z,23.91
2017-04-15T04:56:58.018Z,22.16
2017-04-15T04:57:55.865Z,19.29
2017-04-15T04:58:53.747Z,20.71
2017-04-15T04:59:51.656Z,19.23
2017-04-15T05:00:49.528Z,19.46
2017-04-15T05:01:47.339Z,19.09
2017-04-15T05:02:45.336Z,21.09
2017-04-15T05:03:43.212Z,17.87
2017-04-15T05:04:41.084Z,20.50
2017-04-15T05:05:38.984Z,19.04
2017-04-15T05:06:36.893Z,20.36
2017-04-15T05:07:34.703Z,23.81
2017-04-15T05:08:32.577Z,22.34
2017-04-15T05:09:30.438Z,21.19
2017-04-15T05:10:28.296Z,20.97
2017-04-15T05:11:26.227Z,21.96
2017-04-15T05:12:24.036Z,20.41
2017-04-15T05:13:21.999Z,22.11
2017-04-15T05:14:19.910Z,21.66
2017-04-15T05:15:17.790Z,22.43
2017-04-15T05:16:15.668Z,24.31
2017-04-15T05:17:13.557Z,24.01
2017-04-15T05:18:11.422Z,25.06
2017-04-15T05:19:09.289Z,27.63
2017-04-15T05:20:07.337Z,27.34
2017-04-15T05:21:05.208Z,28.59
2017-04-15T05:22:03.069Z,24.17
2017-04-15T05:23:00.896Z,26.54
2017-04-15T05:23:58.759Z,27.07
2017-04-15T05:24:56.615Z,25.66
2017-04-15T05:25:54.508Z,28.04
2017-04-15T05:26:52.594Z,25.73
2017-04-15T05:27:50.433Z,27.47
2017-04-15T05:28:48.300Z,26.04
2017-04-15T05:29:46.153Z,27.63
2017-04-15T05:30:44.039Z,26.90
2017-04-15T05:31:41.904Z,28.03
2017-04-15T05:32:39.813Z,27.69
2017-04-15T05:33:37.702Z,28.90
2017-04-15T05:34:35.611Z,29.54
2017-04-15T05:35:33.460Z,29.14
2017-04-15T05:36:31.363Z,30.99
2017-04-15T05:37:29.192Z,31.30
2017-04-15T05:38:27.112Z,28.24
2017-04-15T05:39:25.014Z,32.39
2017-04-15T05:40:22.868Z,32.61
2017-04-15T05:41:20.727Z,28.74
2017-04-15T05:42:18.680Z,30.61
2017-04-15T05:43:16.578Z,35.19
2017-04-15T05:44:14.480Z,29.39
2017-04-15T05:45:12.346Z,31.69
2017-04-15T05:46:10.200Z,32.99
2017-04-15T05:47:08.084Z,35.20
2017-04-15T05:48:05.947Z,32.77
2017-04-15T05:49:03.788Z,30.21
2017-04-15T05:50:01.633Z,29.80
2017-04-15T05:50:59.499Z,34.47
2017-04-15T05:51:57.411Z,31.19
2017-04-15T05:52:55.278Z,30.84
2017-04-15T05:53:53.172Z,32.19
2017-04-15T05:54:51.035Z,32.96
2017-04-15T05:55:48.902Z,29.57
2017-04-15T05:56:46.766Z,29.74
2017-04-15T05:57:44.674Z,29.57
2017-04-15T05:58:42.510Z,30.60
2017-04-15T05:59:40.336Z,30.89
2017-04-15T06:00:38.203Z,29.83
2017-04-15T06:01:36.067Z,30.56
2017-04-15T06:02:34.034Z,28.60
2017-04-15T06:03:31.944Z,29.66
2017-04-15T06:04:29.823Z,29.54
2017-04-15T06:05:27.692Z,32.46
2017-04-15T06:06:25.535Z,30.86
2017-04-15T06:07:23.746Z,29.40
2017-04-15T06:08:21.627Z,33.96
2017-04-15T06:09:20.100Z,30.49
2017-04-15T06:10:17.960Z,26.07
2017-04-15T06:11:15.821Z,27.27
2017-04-15T06:12:13.721Z,33.39
2017-04-15T06:13:11.607Z,30.31
2017-04-15T06:14:09.504Z,28.06
2017-04-15T06:15:07.399Z,29.06
2017-04-15T06:16:05.297Z,28.01
2017-04-15T06:17:03.156Z,31.51
2017-04-15T06:18:00.981Z,28.59
2017-04-15T06:18:58.828Z,26.56
2017-04-15T06:19:56.658Z,28.11
2017-04-15T06:20:54.533Z,28.74
2017-04-15T06:21:52.400Z,26.06
2017-04-15T06:22:50.254Z,28.60
2017-04-15T06:23:48.128Z,28.39
2017-04-15T06:24:45.951Z,27.91
2017-04-15T06:25:43.853Z,32.37
2017-04-15T06:26:41.735Z,26.59
2017-04-15T06:27:39.570Z,29.49
2017-04-15T06:28:37.409Z,35.50
2017-04-15T06:29:35.325Z,31.71
2017-04-15T06:30:33.191Z,28.07
2017-04-15T06:31:31.075Z,28.66
2017-04-15T06:32:28.956Z,30.11
2017-04-15T06:33:26.847Z,29.43
2017-04-15T06:34:24.700Z,28.14
2017-04-15T06:35:22.588Z,30.93
2017-04-15T06:36:20.505Z,32.23
2017-04-15T06:37:18.314Z,30.46
2017-04-15T06:38:16.191Z,37.99
2017-04-15T06:39:14.084Z,29.60
2017-04-15T06:40:11.950Z,28.81
2017-04-15T06:41:09.863Z,35.00
2017-04-15T06:42:07.744Z,30.30
2017-04-15T06:43:05.568Z,27.89
2017-04-15T06:44:03.406Z,28.94
2017-04-15T06:45:01.273Z,32.30
2017-04-15T06:45:59.149Z,28.97
2017-04-15T06:46:57.003Z,31.71
2017-04-15T06:47:54.873Z,31.76
2017-04-15T06:48:52.676Z,31.56
2017-04-15T06:49:50.529Z,31.54
2017-04-15T06:50:48.425Z,36.96
2017-04-15T06:51:46.296Z,30.01
2017-04-15T06:52:44.164Z,33.83
2017-04-15T06:53:41.992Z,33.56
2017-04-15T06:54:39.862Z,36.77
2017-04-15T06:55:37.754Z,36.86
2017-04-15T06:56:35.600Z,35.87
2017-04-15T06:57:33.453Z,34.97
2017-04-15T06:58:31.386Z,33.87
2017-04-15T06:59:29.260Z,38.04
2017-04-15T07:00:27.119Z,31.23
2017-04-15T07:01:25.055Z,31.79
2017-04-15T07:02:23.097Z,33.61
2017-04-15T07:03:20.931Z,36.27
2017-04-15T07:04:18.804Z,36.37
2017-04-15T07:05:16.701Z,37.39
2017-04-15T07:06:14.579Z,33.10
2017-04-15T07:07:12.763Z,34.70
2017-04-15T07:08:10.647Z,39.26
2017-04-15T07:09:08.542Z,39.67
2017-04-15T07:10:06.412Z,35.14
2017-04-15T07:11:04.305Z,38.54
2017-04-15T07:12:02.148Z,31.49
2017-04-15T07:13:00.011Z,39.53
2017-04-15T07:13:57.880Z,45.56
2017-04-15T07:14:55.735Z,33.67
2017-04-15T07:15:53.585Z,39.13
2017-04-15T07:16:51.432Z,32.79
2017-04-15T07:17:49.280Z,35.59
2017-04-15T07:18:47.240Z,37.40
2017-04-15T07:19:45.184Z,33.60
2017-04-15T07:20:43.144Z,32.03
2017-04-15T07:21:41.059Z,39.49
2017-04-15T07:22:38.994Z,32.73
2017-04-15T07:23:36.953Z,33.31
2017-04-15T07:24:34.813Z,35.19
2017-04-15T07:25:32.675Z,39.84
2017-04-15T07:26:30.527Z,43.77
2017-04-15T07:27:28.461Z,33.50
2017-04-15T07:28:26.346Z,34.16
2017-04-15T07:29:24.224Z,36.80
2017-04-15T07:30:22.137Z,36.61
2017-04-15T07:31:20.016Z,36.16
2017-04-15T07:32:17.908Z,37.17
2017-04-15T07:33:15.824Z,35.26
2017-04-15T07:34:13.719Z,37.76
2017-04-15T07:35:11.616Z,38.81
2017-04-15T07:36:09.508Z,38.33
2017-04-15T07:37:07.496Z,35.19
2017-04-15T07:38:05.463Z,37.17
2017-04-15T07:39:03.547Z,34.69
2017-04-15T07:40:01.463Z,33.79
2017-04-15T07:40:59.385Z,35.93
2017-04-15T07:41:57.306Z,36.26
2017-04-15T07:42:55.205Z,33.06
2017-04-15T07:43:53.068Z,35.86
2017-04-15T07:44:50.947Z,32.93
2017-04-15T07:45:48.872Z,36.27
2017-04-15T07:46:46.735Z,32.90
2017-04-15T07:47:44.712Z,31.30
2017-04-15T07:48:42.609Z,33.79
2017-04-15T07:49:41.247Z,34.99
2017-04-15T07:50:39.081Z,34.34
2017-04-15T07:51:36.977Z,37.59
2017-04-15T07:52:34.906Z,38.99
2017-04-15T07:53:32.868Z,33.47
2017-04-15T07:54:30.940Z,36.21
2017-04-15T07:55:28.992Z,37.31
2017-04-15T07:56:26.928Z,33.19
2017-04-15T07:57:24.827Z,34.17
2017-04-15T07:58:22.659Z,38.79
2017-04-15T07:59:20.558Z,34.47
2017-04-15T08:00:18.457Z,33.93
2017-04-15T08:01:17.214Z,37.93
2017-04-15T08:02:15.152Z,34.37
2017-04-15T08:03:13.053Z,35.96
2017-04-15T08:04:10.999Z,40.56
2017-04-15T08:05:08.918Z,40.20
2017-04-15T08:06:06.821Z,38.90
2017-04-15T08:07:04.761Z,40.87
2017-04-15T08:08:02.697Z,43.31
2017-04-15T08:09:01.659Z,42.94
2017-04-15T08:09:59.521Z,42.87
2017-04-15T08:10:57.405Z,42.26
2017-04-15T08:11:55.291Z,40.60
2017-04-15T08:12:53.161Z,46.71
2017-04-15T08:13:51.087Z,41.56
2017-04-15T08:14:48.960Z,43.27
2017-04-15T08:15:46.831Z,43.73
2017-04-15T08:16:44.725Z,46.69
2017-04-15T08:17:42.623Z,39.84
2017-04-15T08:18:40.567Z,46.07
2017-04-15T08:19:38.616Z,49.19
2017-04-15T08:20:36.469Z,47.13
2017-04-15T08:21:35.532Z,48.19
2017-04-15T08:22:33.465Z,45.33
2017-04-15T08:23:31.341Z,50.06
2017-04-15T08:24:29.305Z,50.80
2017-04-15T08:25:27.263Z,46.84
2017-04-15T08:26:25.327Z,50.99
2017-04-15T08:27:23.220Z,48.19
2017-04-15T08:28:21.119Z,41.86
2017-04-15T08:29:19.044Z,49.26
2017-04-15T08:30:16.943Z,46.41
2017-04-15T08:31:14.800Z,55.64
2017-04-15T08:32:12.681Z,51.81
2017-04-15T08:33:10.697Z,53.73
2017-04-15T08:34:08.612Z,53.16
2017-04-15T08:35:06.532Z,51.64
2017-04-15T08:36:04.476Z,53.44
2017-04-15T08:37:02.383Z,55.83
2017-04-15T08:38:01.023Z,57.11
2017-04-15T08:38:58.930Z,52.76
2017-04-15T08:39:56.809Z,54.50
2017-04-15T08:40:54.810Z,53.57
2017-04-15T08:41:52.793Z,56.70
2017-04-15T08:42:50.880Z,59.00
2017-04-15T08:43:48.788Z,59.23
2017-04-15T08:44:46.635Z,56.10
2017-04-15T08:45:44.512Z,57.49
2017-04-15T08:46:42.367Z,57.06
2017-04-15T08:47:40.288Z,51.84
2017-04-15T08:48:38.126Z,57.21
2017-04-15T08:49:36.062Z,58.89
2017-04-15T08:50:33.948Z,59.13
2017-04-15T08:51:32.309Z,57.44
2017-04-15T08:52:30.373Z,62.86
2017-04-15T08:53:28.288Z,55.87
2017-04-15T08:54:26.184Z,54.77
2017-04-15T08:55:24.047Z,57.87
2017-04-15T08:56:22.252Z,54.79
2017-04-15T08:57:20.441Z,64.26
2017-04-15T08:58:18.348Z,53.03
2017-04-15T08:59:16.278Z,58.83
2017-04-15T09:00:14.208Z,50.96
2017-04-15T09:01:12.083Z,53.30
2017-04-15T09:02:10.024Z,46.70
2017-04-15T09:03:07.884Z,53.23
2017-04-15T09:04:05.788Z,44.24
2017-04-15T09:05:03.660Z,48.27
2017-04-15T09:06:01.539Z,48.50
2017-04-15T09:06:59.446Z,49.80
2017-04-15T09:07:57.227Z,57.07
2017-04-15T09:08:55.116Z,53.80
2017-04-15T09:09:54.092Z,48.23
2017-04-15T09:10:51.996Z,52.01
2017-04-15T09:11:49.854Z,46.47
2017-04-15T09:12:47.781Z,48.03
2017-04-15T09:13:45.681Z,48.61
2017-04-15T09:14:43.631Z,46.90
2017-04-15T09:15:41.539Z,48.74
2017-04-15T09:16:39.424Z,53.41
2017-04-15T09:17:37.315Z,50.10
2017-04-15T09:18:35.171Z,57.27
2017-04-15T09:19:33.087Z,49.93
2017-04-15T09:20:30.949Z,47.87
2017-04-15T09:21:28.878Z,52.57
2017-04-15T09:22:26.801Z,53.31
2017-04-15T09:23:24.665Z,50.34
2017-04-15T09:24:22.530Z,50.39
2017-04-15T09:25:20.380Z,54.71
2017-04-15T09:26:18.252Z,54.73
2017-04-15T09:27:16.119Z,55.00
2017-04-15T09:28:14.005Z,58.91
2017-04-15T09:29:11.871Z,60.61
2017-04-15T09:30:09.719Z,57.96
2017-04-15T09:31:07.667Z,64.26
2017-04-15T09:32:05.500Z,52.57
2017-04-15T09:33:03.432Z,53.54
2017-04-15T09:34:01.328Z,58.59
2017-04-15T09:34:59.201Z,59.94
2017-04-15T09:35:57.144Z,58.86
2017-04-15T09:36:55.013Z,56.14
2017-04-15T09:37:52.855Z,53.76
2017-04-15T09:38:50.703Z,60.14
2017-04-15T09:39:48.541Z,56.60
2017-04-15T09:40:46.391Z,60.11
2017-04-15T09:41:44.237Z,56.54
2017-04-15T09:42:42.112Z,58.51
2017-04-15T09:43:39.986Z,55.26
2017-04-15T09:44:37.864Z,59.29
2017-04-15T09:45:35.690Z,52.49
2017-04-15T09:46:33.635Z,58.00
2017-04-15T09:47:31.966Z,51.06
2017-04-15T09:48:29.809Z,49.06
2017-04-15T09:49:27.679Z,53.81
2017-04-15T09:50:25.591Z,54.00
2017-04-15T09:51:23.424Z,54.23
2017-04-15T09:52:21.279Z,55.23
2017-04-15T09:53:19.104Z,53.90
2017-04-15T09:54:17.051Z,52.31
2017-04-15T09:55:14.888Z,59.69
2017-04-15T09:56:12.728Z,54.90
2017-04-15T09:57:10.608Z,51.29
2017-04-15T09:58:10.391Z,58.79
2017-04-15T09:59:08.205Z,55.41
2017-04-15T10:00:06.095Z,56.67
2017-04-15T10:01:04.219Z,59.20
2017-04-15T10:02:02.068Z,53.41
2017-04-15T10:02:59.978Z,58.37
2017-04-15T10:03:57.819Z,58.86
2017-04-15T10:04:55.708Z,48.21
2017-04-15T10:05:53.585Z,50.30
2017-04-15T10:06:51.400Z,53.20
2017-04-15T10:07:49.281Z,54.21
2017-04-15T10:08:47.115Z,51.80
2017-04-15T10:09:44.981Z,53.37
2017-04-15T10:10:42.928Z,50.71
2017-04-15T10:11:40.830Z,52.46
2017-04-15T10:12:39.323Z,50.81
2017-04-15T10:13:37.204Z,51.87
2017-04-15T10:14:35.082Z,51.77
2017-04-15T10:15:32.979Z,50.31
2017-04-15T10:16:30.850Z,51.09
2017-04-15T10:17:28.705Z,47.06
2017-04-15T10:18:26.549Z,45.36
2017-04-15T10:19:24.400Z,43.63
2017-04-15T10:20:22.291Z,47.46
2017-04-15T10:21:20.114Z,44.04
2017-04-15T10:22:17.996Z,46.50
2017-04-15T10:23:15.896Z,47.00
2017-04-15T10:24:13.817Z,41.89
2017-04-15T10:25:11.699Z,44.70
2017-04-15T10:26:09.661Z,44.07
2017-04-15T10:27:07.544Z,41.61
2017-04-15T10:28:05.427Z,44.60
2017-04-15T10:29:03.384Z,40.39
2017-04-15T10:30:01.306Z,43.97
2017-04-15T10:30:59.188Z,43.83
2017-04-15T10:31:57.079Z,39.26
2017-04-15T10:32:54.964Z,40.81
2017-04-15T10:33:52.821Z,42.96
2017-04-15T10:34:50.711Z,38.30
2017-04-15T10:35:48.579Z,37.03
2017-04-15T10:36:46.530Z,13.01
2017-04-15T10:37:44.492Z,15.57
2017-04-15T10:38:42.351Z,17.20
2017-04-15T10:39:40.275Z,18.26
2017-04-15T10:40:38.221Z,15.20
2017-04-15T10:41:36.232Z,17.20
2017-04-15T10:42:34.318Z,16.36
2017-04-15T10:43:32.283Z,13.31
2017-04-15T10:44:30.192Z,14.71
2017-04-15T10:45:28.200Z,15.26
2017-04-15T10:46:26.616Z,11.83
2017-04-15T10:47:24.699Z,18.77
2017-04-15T10:48:22.938Z,10.67
2017-04-15T10:49:21.249Z,15.29
2017-04-15T10:50:19.189Z,13.59
2017-04-15T10:51:16.984Z,11.90
2017-04-15T10:52:14.904Z,12.60
2017-04-15T10:53:12.817Z,12.94
2017-04-15T10:54:10.687Z,12.07
2017-04-15T10:55:08.609Z,10.94
2017-04-15T10:56:06.499Z,11.43
2017-04-15T10:57:04.452Z,11.31
2017-04-15T10:58:02.380Z,14.77
2017-04-15T10:59:00.571Z,16.60
2017-04-15T10:59:58.493Z,11.79
2017-04-15T11:00:56.570Z,16.10
2017-04-15T11:01:54.639Z,13.93
2017-04-15T11:02:52.625Z,12.60
2017-04-15T11:03:50.743Z,12.79
2017-04-15T11:04:48.741Z,12.87
2017-04-15T11:05:48.076Z,14.46
2017-04-15T11:06:45.960Z,14.64
2017-04-15T11:07:43.924Z,16.24
2017-04-15T11:08:41.872Z,12.03
2017-04-15T11:09:39.928Z,14.60
2017-04-15T11:10:38.049Z,17.30
2017-04-15T11:11:36.080Z,13.97
2017-04-15T11:12:34.552Z,17.21
2017-04-15T11:13:32.672Z,16.51
2017-04-15T11:14:30.728Z,15.87
2017-04-15T11:15:28.632Z,15.43
2017-04-15T11:16:26.562Z,16.64
2017-04-15T11:17:24.633Z,16.66
2017-04-15T11:18:22.583Z,12.16
2017-04-15T11:19:20.463Z,16.76
2017-04-15T11:20:18.371Z,17.77
2017-04-15T11:21:16.282Z,12.67
2017-04-15T11:22:14.188Z,12.59
2017-04-15T11:23:12.036Z,13.81
2017-04-15T11:24:09.952Z,14.44
2017-04-15T11:25:07.812Z,13.81
2017-04-15T11:26:05.693Z,13.60
2017-04-15T11:27:03.623Z,18.30
2017-04-15T11:28:01.501Z,16.94
2017-04-15T11:28:59.353Z,13.96
2017-04-15T11:29:57.192Z,20.24
2017-04-15T11:30:55.043Z,15.93
2017-04-15T11:31:53.002Z,15.04
2017-04-15T11:32:51.385Z,15.00
2017-04-15T11:33:49.257Z,16.51
2017-04-15T11:34:47.252Z,13.36
2017-04-15T11:35:45.147Z,13.74
2017-04-15T11:36:43.048Z,14.61
2017-04-15T11:37:40.935Z,14.74
2017-04-15T11:38:38.740Z,19.10
2017-04-15T11:39:36.684Z,19.06
2017-04-15T11:40:34.540Z,15.53
2017-04-15T11:41:32.468Z,16.71
2017-04-15T11:42:30.343Z,18.14
2017-04-15T11:43:28.216Z,16.40
2017-04-15T11:44:26.109Z,14.43
2017-04-15T11:45:23.962Z,16.86
2017-04-15T11:46:21.941Z,14.66
2017-04-15T11:47:19.776Z,14.50
2017-04-15T11:48:17.692Z,14.00
2017-04-15T11:49:15.560Z,17.23
2017-04-15T11:50:13.367Z,15.26
2017-04-15T11:51:11.377Z,19.74
2017-04-15T11:52:09.208Z,14.13
2017-04-15T11:53:07.165Z,17.46
2017-04-15T11:54:04.997Z,17.17
2017-04-15T11:55:03.032Z,17.60
2017-04-15T11:56:07.707Z,15.23
2017-04-15T11:57:05.576Z,13.70
2017-04-15T11:58:03.487Z,12.07
2017-04-15T11:59:01.524Z,14.04
2017-04-15T11:59:59.351Z,12.11
2017-04-15T12:00:57.342Z,12.59
2017-04-15T12:01:55.236Z,11.87
2017-04-15T12:02:53.156Z,7.31
2017-04-15T12:03:51.050Z,10.07
2017-04-15T12:04:48.918Z,8.67
2017-04-15T12:05:46.756Z,9.83
2017-04-15T12:06:44.648Z,9.46
2017-04-15T12:07:42.561Z,8.10
2017-04-15T12:08:40.388Z,6.34
2017-04-15T12:09:38.392Z,7.44
2017-04-15T12:10:36.332Z,7.54
2017-04-15T12:11:34.193Z,7.26
2017-04-15T12:12:32.203Z,8.90
2017-04-15T12:13:30.150Z,8.54
2017-04-15T12:14:28.019Z,8.04
2017-04-15T12:15:25.855Z,7.66
2017-04-15T12:16:23.692Z,7.01
2017-04-15T12:17:21.565Z,8.00
2017-04-15T12:18:19.389Z,4.97
2017-04-15T12:19:17.245Z,6.67
2017-04-15T12:20:15.125Z,6.99
2017-04-15T12:21:12.963Z,6.09
2017-04-15T12:22:10.792Z,4.70
2017-04-15T12:23:08.748Z,8.80
2017-04-15T12:24:06.562Z,7.46
2017-04-15T12:25:04.438Z,5.63
2017-04-15T12:26:02.366Z,3.89
2017-04-15T12:27:00.316Z,4.50